Time;durP1;ratioP1;P1;durP2;ratioP2;P2;SDS_P1;SDS_P2;PMS_P1;PMS_P2;Temp;Humidity;BMP_temperature;BMP_pressure;BME280_temperature;BME280_humidity;BME280_pressure;Samples;Min_cycle;Max_cycle;Signal;HPM_P1;HPM_P2
2022/03/16 00:01:33;;;;;;;12.35;5.88;;;5.50;99.90;;;5.26;97.37;101855.13;5165261;28;20400;-71
2022/03/16 00:04:05;;;;;;;13.20;5.78;;;5.50;99.90;;;5.24;97.05;101861.88;5165362;28;20137;-72
2022/03/16 00:06:37;;;;;;;12.10;5.25;;;5.50;99.90;;;5.21;97.16;101853.91;5165088;28;20053;-74
2022/03/16 00:09:09;;;;;;;12.00;5.55;;;5.40;99.90;;;5.14;96.73;101871.53;5164272;28;20050;-73
2022/03/16 00:11:42;;;;;;;10.95;5.00;;;5.40;99.90;;;5.08;96.43;101870.19;5165040;28;20056;-74
2022/03/16 00:14:16;;;;;;;13.18;5.43;;;5.40;99.90;;;5.05;96.13;101870.88;5164386;28;20046;-72
2022/03/16 00:16:48;;;;;;;12.20;5.57;;;5.30;99.90;;;4.99;96.06;101862.66;5165394;28;20065;-71
2022/03/16 00:19:20;;;;;;;11.00;5.47;;;5.20;99.90;;;4.93;95.32;101863.91;5164146;28;20065;-71
2022/03/16 00:21:52;;;;;;;12.30;5.85;;;5.20;99.90;;;4.84;95.07;101859.84;5164801;28;20134;-73
2022/03/16 00:24:24;;;;;;;10.93;5.32;;;5.10;99.90;;;4.80;95.14;101862.09;5164705;28;20504;-72
2022/03/16 00:27:13;;;;;;;12.73;5.53;;;5.00;99.90;;;4.75;95.64;101859.16;5164703;28;20141;-71
2022/03/16 00:29:46;;;;;;;10.25;5.45;;;5.00;99.90;;;4.74;96.03;101861.63;5161344;28;20042;-72
2022/03/16 00:32:18;;;;;;;11.95;5.13;;;5.00;99.90;;;4.75;96.54;101868.59;5164229;28;20411;-73
2022/03/16 00:34:50;;;;;;;12.85;6.30;;;5.00;99.90;;;4.76;97.28;101870.38;5163514;28;20050;-71
2022/03/16 00:37:22;;;;;;;15.95;6.53;;;5.00;99.90;;;4.78;97.81;101864.56;5163620;28;20054;-72
2022/03/16 00:39:54;;;;;;;15.52;6.68;;;5.00;99.90;;;4.80;98.40;101868.16;5162839;28;20514;-73
2022/03/16 00:42:27;;;;;;;16.05;7.28;;;5.00;99.90;;;4.84;98.85;101861.53;5243080;23;20797;-84
2022/03/16 00:45:01;;;;;;;14.02;6.78;;;5.10;99.90;;;4.81;99.42;101869.03;5192397;28;20368;-85
2022/03/16 00:47:33;;;;;;;18.55;7.53;;;5.20;99.90;;;4.86;99.42;101865.13;5194512;28;20052;-85
2022/03/16 00:50:07;;;;;;;15.45;7.22;;;5.20;99.90;;;4.90;99.02;101864.59;5192239;28;20049;-85
2022/03/16 00:52:39;;;;;;;16.13;8.00;;;5.20;99.90;;;4.89;99.00;101857.63;5172264;28;20058;-84
2022/03/16 00:55:11;;;;;;;17.55;8.00;;;5.20;99.90;;;4.84;99.14;101867.59;5172738;28;20045;-82
2022/03/16 00:57:43;;;;;;;17.95;7.45;;;5.20;99.90;;;4.85;98.83;101851.31;5173338;28;20512;-84
2022/03/16 01:00:17;;;;;;;17.98;8.02;;;5.20;99.90;;;4.82;98.65;101843.31;5174236;28;20043;-85
2022/03/16 01:02:49;;;;;;;16.20;7.03;;;5.20;99.90;;;4.86;98.80;101852.22;5172882;28;20520;-84
2022/03/16 01:05:21;;;;;;;15.95;7.07;;;5.10;99.90;;;4.84;98.41;101848.63;5176619;28;20564;-84
2022/03/16 01:07:53;;;;;;;16.30;7.65;;;5.20;99.90;;;4.86;98.46;101852.22;5176911;28;20428;-85
2022/03/16 01:10:25;;;;;;;17.30;7.10;;;5.20;99.90;;;4.79;98.29;101853.44;5176864;28;20060;-85
2022/03/16 01:12:58;;;;;;;16.25;7.43;;;5.20;99.90;;;4.79;98.69;101860.28;5176932;28;20394;-85
2022/03/16 01:15:31;;;;;;;15.55;6.90;;;5.10;99.90;;;4.73;98.66;101849.50;5177991;28;20053;-87
2022/03/16 01:18:03;;;;;;;13.95;7.32;;;5.10;99.90;;;4.72;98.80;101858.03;5178441;28;20138;-84
2022/03/16 01:20:35;;;;;;;15.25;6.32;;;5.10;99.90;;;4.60;98.88;101838.25;5178383;28;20082;-83
2022/03/16 01:23:07;;;;;;;15.88;7.43;;;5.10;99.90;;;4.62;98.51;101841.81;5178316;28;20493;-84
2022/03/16 01:25:40;;;;;;;15.60;7.00;;;5.10;99.90;;;4.61;98.81;101833.97;5178162;28;20118;-85
2022/03/16 01:28:12;;;;;;;15.07;7.00;;;5.10;99.90;;;4.66;98.74;101855.00;5178502;28;20058;-86
2022/03/16 01:30:45;;;;;;;16.45;7.15;;;5.10;99.90;;;4.65;99.12;101850.63;5178819;28;20257;-83
2022/03/16 01:33:17;;;;;;;15.98;7.55;;;5.00;99.90;;;4.59;99.20;101840.72;5178572;28;20073;-81
2022/03/16 01:35:49;;;;;;;15.25;7.28;;;5.00;99.90;;;4.51;99.63;101827.22;5179500;28;20501;-87
2022/03/16 01:38:21;;;;;;;15.82;6.60;;;5.00;99.90;;;4.58;99.41;101833.75;5181435;28;20066;-86
2022/03/16 01:40:53;;;;;;;14.10;6.80;;;5.00;99.90;;;4.62;99.44;101833.19;5182195;28;20106;-85
2022/03/16 01:43:26;;;;;;;17.17;7.13;;;5.00;99.90;;;4.56;99.73;101822.38;5177988;28;20057;-83
2022/03/16 01:45:59;;;;;;;13.90;7.03;;;5.00;99.90;;;4.61;99.63;101832.28;5178425;28;20054;-82
2022/03/16 01:48:31;;;;;;;15.13;6.85;;;5.00;99.90;;;4.56;99.83;101825.91;5177406;28;20125;-85
2022/03/16 01:51:04;;;;;;;17.42;6.97;;;5.00;99.90;;;4.58;99.33;101834.66;5177950;28;20046;-84
2022/03/16 01:53:37;;;;;;;14.70;6.53;;;5.00;99.90;;;4.62;99.59;101836.66;5178243;28;20052;-84
2022/03/16 01:56:09;;;;;;;13.43;6.40;;;5.00;99.90;;;4.60;99.28;101843.41;5180856;28;20118;-83
2022/03/16 01:58:41;;;;;;;15.50;6.45;;;5.00;99.90;;;4.63;99.28;101830.75;5183503;28;20088;-82
2022/03/16 02:01:15;;;;;;;15.15;6.75;;;5.00;99.90;;;4.66;99.19;101842.06;5182747;28;20070;-82
2022/03/16 02:03:47;;;;;;;16.00;6.60;;;5.00;99.90;;;4.68;99.03;101840.50;5182781;28;20056;-82
2022/03/16 02:06:19;;;;;;;15.25;6.72;;;5.00;99.90;;;4.61;98.51;101829.72;5181494;28;20046;-81
2022/03/16 02:08:51;;;;;;;11.85;6.63;;;5.00;99.90;;;4.63;98.64;101838.50;5181535;28;20428;-82
2022/03/16 02:11:23;;;;;;;14.75;7.10;;;4.90;99.90;;;4.61;98.53;101829.72;5180852;28;20060;-83
2022/03/16 02:13:55;;;;;;;17.85;6.95;;;4.90;99.90;;;4.62;98.49;101841.81;5181467;28;20050;-83
2022/03/16 02:16:28;;;;;;;14.48;7.03;;;4.90;99.90;;;4.52;98.29;101829.03;5180711;28;20133;-84
2022/03/16 02:19:00;;;;;;;16.33;6.22;;;4.90;99.90;;;4.61;98.39;101846.88;5179553;28;20056;-88
2022/03/16 02:21:38;;;;;;;12.73;6.50;;;4.90;99.90;;;4.58;98.03;101837.22;5180360;28;20054;-87
2022/03/16 02:24:11;;;;;;;15.90;6.63;;;4.90;99.90;;;4.52;98.00;101839.34;5180082;28;20050;-82
2022/03/16 02:26:43;;;;;;;15.15;7.25;;;4.80;99.90;;;4.55;97.65;101849.91;5180954;28;20054;-87
2022/03/16 02:29:15;;;;;;;14.00;6.80;;;4.80;99.90;;;4.52;97.84;101838.47;5179530;28;20066;-84
2022/03/16 02:31:48;;;;;;;15.75;7.30;;;4.80;99.90;;;4.51;97.80;101832.41;5179594;28;20465;-86
2022/03/16 02:34:20;;;;;;;16.30;8.05;;;4.80;99.90;;;4.48;97.47;101842.47;5180197;28;20137;-85
2022/03/16 02:36:52;;;;;;;16.25;7.38;;;4.80;99.90;;;4.34;97.71;101822.47;5180763;28;20046;-86
2022/03/16 02:39:25;;;;;;;17.70;7.80;;;4.70;99.90;;;4.27;97.13;101815.94;5181278;28;20050;-84
2022/03/16 02:41:57;;;;;;;14.35;7.32;;;4.70;99.90;;;4.31;96.94;101828.31;5181176;28;20110;-84
2022/03/16 02:44:29;;;;;;;16.50;8.02;;;4.60;99.90;;;4.24;96.45;101835.47;5183143;28;20141;-86
2022/03/16 02:47:01;;;;;;;14.20;7.05;;;4.60;99.90;;;4.11;96.50;101832.69;5188845;28;20056;-84
2022/03/16 02:49:34;;;;;;;15.95;7.53;;;4.50;99.90;;;4.13;96.43;101844.06;5188206;28;20050;-84
2022/03/16 02:52:10;;;;;;;18.83;7.95;;;4.50;99.90;;;4.12;96.42;101850.91;5183075;28;20058;-84
2022/03/16 02:54:43;;;;;;;15.75;7.28;;;4.40;99.90;;;4.11;96.54;101853.34;5179802;28;20066;-83
2022/03/16 02:57:16;;;;;;;17.25;7.30;;;4.40;99.90;;;4.06;96.25;101861.66;5178377;28;20054;-84
2022/03/16 02:59:48;;;;;;;17.30;7.47;;;4.40;99.90;;;3.99;96.23;101849.06;5178842;28;20051;-84
2022/03/16 03:02:20;;;;;;;14.73;6.32;;;4.30;99.90;;;3.93;96.31;101852.84;5180765;28;20077;-84
2022/03/16 03:04:52;;;;;;;13.35;6.80;;;4.30;99.90;;;3.92;96.62;101854.53;5182108;28;20080;-83
2022/03/16 03:07:24;;;;;;;17.80;6.32;;;4.30;99.90;;;3.94;97.26;101865.84;5182041;28;20065;-84
2022/03/16 03:09:57;;;;;;;18.58;6.63;;;4.30;99.90;;;3.92;97.45;101851.94;5181835;28;20117;-84
2022/03/16 03:12:35;;;;;;;14.55;6.50;;;4.30;99.90;;;3.88;98.02;101849.88;5181408;28;20058;-85
2022/03/16 03:15:10;;;;;;;18.25;6.85;;;4.20;99.90;;;3.80;98.32;101845.81;5182758;28;20046;-85
2022/03/16 03:17:43;;;;;;;16.95;6.18;;;4.20;99.90;;;3.89;98.59;101856.84;5182656;28;20057;-85
2022/03/16 03:20:16;;;;;;;21.08;7.25;;;4.20;99.90;;;3.87;98.81;101858.41;5181944;28;20126;-87
2022/03/16 03:22:48;;;;;;;17.13;6.60;;;4.20;99.90;;;3.90;98.71;101856.06;5180904;28;20077;-84
2022/03/16 03:25:22;;;;;;;16.85;6.80;;;4.20;99.90;;;3.90;99.29;101857.75;5181913;28;20121;-87
2022/03/16 03:27:54;;;;;;;15.07;6.82;;;4.20;99.90;;;3.96;99.60;101874.59;5180282;28;20060;-84
2022/03/16 03:30:26;;;;;;;16.10;6.88;;;4.20;99.90;;;3.98;99.59;101867.00;5179393;28;20060;-84
2022/03/16 03:32:58;;;;;;;19.80;7.45;;;4.20;99.90;;;3.96;99.48;101868.53;5179734;28;20050;-85
2022/03/16 03:35:30;;;;;;;16.17;6.57;;;4.20;99.90;;;3.96;99.88;101863.38;5179994;28;20333;-84
2022/03/16 03:38:02;;;;;;;16.30;7.15;;;4.30;99.90;;;3.96;100.00;101864.28;5179442;28;20046;-84
2022/03/16 03:40:35;;;;;;;18.90;7.30;;;4.30;99.90;;;3.93;100.00;101869.22;5178909;28;20153;-84
2022/03/16 03:43:07;;;;;;;19.45;7.82;;;4.30;99.90;;;3.88;100.00;101867.06;5179328;28;20050;-85
2022/03/16 03:45:39;;;;;;;18.45;7.93;;;4.30;99.90;;;3.83;100.00;101866.69;5179565;28;20104;-84
2022/03/16 03:48:11;;;;;;;16.02;7.25;;;4.20;99.90;;;3.81;100.00;101861.41;5179777;28;20420;-85
2022/03/16 03:50:43;;;;;;;20.00;7.97;;;4.20;99.90;;;3.82;100.00;101862.31;5180184;28;20061;-84
2022/03/16 03:53:16;;;;;;;15.23;6.75;;;4.20;99.90;;;3.80;100.00;101857.03;5179799;28;20051;-87
2022/03/16 03:55:49;;;;;;;16.45;7.82;;;4.10;99.90;;;3.75;99.80;101865.19;5179674;28;20052;-86
2022/03/16 03:58:21;;;;;;;15.63;6.25;;;4.10;99.90;;;3.66;99.77;101846.41;5178495;28;20077;-86
2022/03/16 04:00:53;;;;;;;13.93;6.30;;;4.10;99.90;;;3.68;99.57;101866.38;5179687;28;20064;-84
2022/03/16 04:03:26;;;;;;;13.82;5.88;;;4.10;99.90;;;3.60;99.62;101852.00;5179146;28;20066;-85
2022/03/16 04:05:57;;;;;;;13.73;6.07;;;4.00;99.90;;;3.66;99.49;101859.31;5180078;28;20050;-86
2022/03/16 04:08:30;;;;;;;14.05;6.25;;;4.00;99.90;;;3.67;99.62;101863.69;5180175;28;20117;-84
2022/03/16 04:11:03;;;;;;;12.50;5.82;;;4.00;99.90;;;3.65;99.57;101865.22;5180508;28;20053;-83
2022/03/16 04:13:35;;;;;;;13.45;6.55;;;4.00;99.90;;;3.66;98.85;101864.47;5180813;28;20534;-83
2022/03/16 04:16:07;;;;;;;15.13;6.28;;;4.00;99.90;;;3.59;98.38;101870.81;5180663;28;20054;-84
2022/03/16 04:18:40;;;;;;;13.35;5.53;;;3.90;99.90;;;3.59;98.21;101862.19;5180588;28;20046;-84
2022/03/16 04:21:11;;;;;;;11.27;5.28;;;3.90;99.90;;;3.53;97.77;101866.06;5182043;28;20162;-85
2022/03/16 04:23:44;;;;;;;12.65;5.85;;;3.90;99.90;;;3.50;98.57;101873.53;5180626;28;20050;-85
2022/03/16 04:26:17;;;;;;;12.18;6.25;;;3.80;99.90;;;3.49;99.15;101869.16;5180564;28;20053;-83
2022/03/16 04:28:49;;;;;;;12.02;5.50;;;3.80;99.90;;;3.37;99.35;101841.50;5181802;28;20074;-84
2022/03/16 04:31:22;;;;;;;14.48;6.10;;;3.80;99.90;;;3.45;99.70;101861.06;5181313;28;20066;-84
2022/03/16 04:33:55;;;;;;;12.20;5.47;;;3.80;99.90;;;3.43;99.42;101862.63;5178354;28;20085;-83
2022/03/16 04:36:29;;;;;;;14.52;6.18;;;3.80;99.90;;;3.43;99.55;101866.09;5180522;28;20064;-86
2022/03/16 04:39:01;;;;;;;13.23;6.00;;;3.80;99.90;;;3.45;99.65;101861.94;5179722;28;20054;-81
2022/03/16 04:41:34;;;;;;;16.42;6.28;;;3.80;99.90;;;3.46;99.38;101863.78;5180214;28;20054;-84
2022/03/16 04:44:06;;;;;;;13.20;5.45;;;3.80;99.90;;;3.47;99.30;101873.31;5181590;28;20084;-85
2022/03/16 04:46:39;;;;;;;12.65;5.38;;;3.80;99.90;;;3.47;99.33;101863.00;5182702;28;20088;-84
2022/03/16 04:49:11;;;;;;;11.95;5.10;;;3.80;99.90;;;3.48;99.45;101853.59;5179903;28;20113;-84
2022/03/16 04:51:43;;;;;;;12.20;5.18;;;3.90;99.90;;;3.41;98.81;101849.63;5178960;28;20057;-83
2022/03/16 04:54:16;;;;;;;12.25;5.43;;;3.80;99.90;;;3.42;98.48;101850.50;5175652;28;20046;-82
2022/03/16 04:56:50;;;;;;;13.32;5.70;;;3.80;99.90;;;3.43;98.55;101853.22;5176149;28;20116;-84
2022/03/16 04:59:22;;;;;;;13.93;5.35;;;3.80;99.90;;;3.47;98.80;101868.16;5176125;28;20133;-86
2022/03/16 05:01:54;;;;;;;12.15;5.00;;;3.80;99.90;;;3.44;99.25;101870.47;5176315;28;20073;-83
2022/03/16 05:04:26;;;;;;;15.63;5.72;;;3.80;99.90;;;3.42;99.64;101866.88;5177879;28;20051;-85
2022/03/16 05:06:58;;;;;;;11.50;4.95;;;3.80;99.90;;;3.43;99.30;101857.47;5177825;28;20144;-82
2022/03/16 05:09:30;;;;;;;11.55;4.78;;;3.80;99.90;;;3.45;99.31;101861.94;5178285;28;20054;-83
2022/03/16 05:12:05;;;;;;;11.35;5.20;;;3.80;99.90;;;3.41;99.26;101862.50;5177096;28;20058;-82
2022/03/16 05:14:37;;;;;;;12.45;6.32;;;3.80;99.90;;;3.32;99.06;101856.59;5177209;28;20507;-83
2022/03/16 05:17:09;;;;;;;13.80;5.53;;;3.80;99.90;;;3.36;99.36;101863.81;5177550;28;20485;-83
2022/03/16 05:19:41;;;;;;;11.63;5.57;;;3.80;99.90;;;3.40;99.53;101864.97;5176150;28;20493;-83
2022/03/16 05:22:13;;;;;;;10.88;5.43;;;3.80;99.90;;;3.41;99.63;101869.34;5176971;28;20485;-83
2022/03/16 05:24:45;;;;;;;14.15;5.72;;;3.80;99.90;;;3.40;99.21;101865.88;5178286;28;20110;-83
2022/03/16 05:27:20;;;;;;;10.55;5.03;;;3.80;99.90;;;3.42;99.42;101877.19;5180939;28;20121;-83
2022/03/16 05:29:52;;;;;;;16.02;6.00;;;3.80;99.90;;;3.43;99.46;101875.50;5181241;28;20066;-87
2022/03/16 05:32:24;;;;;;;11.05;5.20;;;3.80;99.90;;;3.45;99.41;101877.41;5183609;28;20046;-87
2022/03/16 05:34:56;;;;;;;11.27;5.18;;;3.80;99.90;;;3.47;99.26;101870.72;5184459;28;20627;-83
2022/03/16 05:37:27;;;;;;;11.23;5.25;;;3.80;99.90;;;3.51;99.37;101875.34;5183547;28;20419;-83
2022/03/16 05:39:59;;;;;;;11.38;5.50;;;3.90;99.90;;;3.50;99.36;101875.22;5182739;28;20066;-84
2022/03/16 05:42:33;;;;;;;10.82;5.53;;;3.90;99.90;;;3.45;98.95;101867.09;5183296;28;20046;-84
2022/03/16 05:45:07;;;;;;;11.63;5.15;;;3.90;99.90;;;3.50;98.70;101876.13;5182894;28;20137;-81
2022/03/16 05:47:40;;;;;;;13.35;4.90;;;3.90;99.90;;;3.56;99.04;101879.97;5180921;28;20081;-85
2022/03/16 05:50:11;;;;;;;12.82;5.15;;;3.90;99.90;;;3.56;98.61;101885.13;5181020;28;20047;-86
2022/03/16 05:52:46;;;;;;;13.73;6.22;;;3.90;99.90;;;3.56;98.58;101890.28;5180197;28;20056;-85
2022/03/16 05:55:18;;;;;;;15.18;5.57;;;3.90;99.90;;;3.60;99.08;101897.50;5179827;28;20070;-84
2022/03/16 05:57:51;;;;;;;15.75;6.28;;;3.90;99.90;;;3.59;99.10;101890.56;5180896;28;20050;-85
2022/03/16 06:00:24;;;;;;;15.13;6.25;;;3.90;99.90;;;3.60;99.42;101892.34;5181216;28;20046;-83
2022/03/16 06:02:56;;;;;;;16.83;6.47;;;4.00;99.90;;;3.53;99.64;101885.78;5180301;28;20109;-83
2022/03/16 06:05:28;;;;;;;17.10;6.60;;;4.00;99.90;;;3.59;100.00;101900.88;5180400;28;20050;-86
2022/03/16 06:08:01;;;;;;;16.80;6.30;;;4.00;99.90;;;3.65;100.00;101891.00;5179873;28;20050;-85
2022/03/16 06:10:33;;;;;;;15.68;6.65;;;4.10;99.90;;;3.69;100.00;101903.38;5179689;28;20152;-84
2022/03/16 06:13:07;;;;;;;14.52;6.22;;;4.10;99.90;;;3.73;100.00;101884.81;5180711;28;20053;-84
2022/03/16 06:15:42;;;;;;;17.98;6.95;;;4.10;99.90;;;3.77;100.00;101890.31;5178870;28;20056;-84
2022/03/16 06:18:15;;;;;;;20.75;7.38;;;4.20;99.90;;;3.83;100.00;101883.84;5179651;28;20064;-84
2022/03/16 06:20:47;;;;;;;18.27;7.25;;;4.20;99.90;;;3.94;100.00;101883.91;5179655;28;20575;-83
2022/03/16 06:23:19;;;;;;;18.52;7.03;;;4.30;99.90;;;4.31;100.00;101904.84;5179675;28;20057;-84
2022/03/16 06:25:51;;;;;;;18.45;7.40;;;4.50;99.90;;;4.63;99.83;101899.59;5180063;28;20118;-87
2022/03/16 06:28:24;;;;;;;20.63;7.35;;;4.70;99.90;;;4.92;98.60;101894.00;5178732;28;20058;-85
2022/03/16 06:30:56;;;;;;;17.63;7.35;;;4.90;99.90;;;5.11;96.37;101896.28;5172759;28;20049;-81
2022/03/16 06:33:28;;;;;;;20.85;8.50;;;5.10;99.90;;;5.50;94.45;101894.81;5176898;28;20056;-82
2022/03/16 06:36:00;;;;;;;26.02;8.82;;;5.40;99.90;;;6.25;93.23;101899.38;5176916;28;20050;-82
2022/03/16 06:38:32;;;;;;;18.23;7.55;;;5.80;99.90;;;7.12;90.08;101909.63;5177122;28;20113;-82
2022/03/16 06:41:04;;;;;;;20.35;7.72;;;6.40;99.90;;;8.10;85.61;101916.81;5241427;23;20056;-72
2022/03/16 06:43:38;;;;;;;19.02;7.20;;;7.10;99.90;;;8.98;81.66;101910.94;5185929;28;20048;-70
2022/03/16 06:46:10;;;;;;;15.38;6.82;;;7.80;99.90;;;9.54;75.52;101912.44;5176855;28;20046;-70
2022/03/16 06:48:42;;;;;;;15.57;6.63;;;8.40;99.90;;;9.69;71.48;101915.00;5166448;28;20058;-71
2022/03/16 06:51:14;;;;;;;13.80;6.22;;;8.70;99.90;;;9.71;70.40;101915.97;5166452;28;20086;-70
2022/03/16 06:53:46;;;;;;;14.85;6.78;;;8.80;99.90;;;10.24;69.83;101912.84;5166823;28;20054;-70
2022/03/16 06:56:18;;;;;;;14.63;6.18;;;9.20;99.90;;;10.51;68.60;101910.81;5167261;28;20226;-71
2022/03/16 06:58:51;;;;;;;13.07;5.95;;;9.50;99.90;;;10.64;67.13;101914.97;5165750;28;20046;-72
2022/03/16 07:01:23;;;;;;;12.65;6.05;;;9.70;99.90;;;10.58;67.00;101918.16;5165901;28;20567;-73
2022/03/16 07:03:55;;;;;;;14.32;5.80;;;9.70;99.90;;;11.14;66.89;101918.44;5166146;28;20054;-73
2022/03/16 07:06:27;;;;;;;11.65;5.90;;;10.00;99.90;;;11.99;64.20;101917.34;5165242;28;20052;-72
2022/03/16 07:08:59;;;;;;;13.23;5.93;;;10.60;99.90;;;12.55;61.61;101917.31;5165461;28;20518;-72
2022/03/16 07:11:31;;;;;;;11.20;5.30;;;11.10;99.90;;;12.83;59.06;101902.81;5164923;28;20057;-73
2022/03/16 07:16:53;;;;;;;11.75;6.32;;;11.40;98.10;;;11.40;61.26;101882.28;5165057;28;20434;-74
2022/03/16 07:19:26;;;;;;;12.50;5.80;;;10.90;98.80;;;11.17;62.10;101890.72;5165048;28;20052;-73
2022/03/16 07:22:00;;;;;;;13.18;6.20;;;10.70;99.30;;;11.03;63.57;101893.53;5165650;28;20128;-74
2022/03/16 07:24:32;;;;;;;12.95;6.07;;;10.60;99.90;;;10.87;64.10;101885.72;5165119;28;20046;-74
2022/03/16 07:27:06;;;;;;;11.02;5.68;;;10.40;99.90;;;11.08;64.66;101883.31;5164644;28;20068;-72
2022/03/16 07:29:40;;;;;;;14.07;6.78;;;10.40;99.90;;;12.05;61.97;101886.25;5165006;28;20493;-72
2022/03/16 07:32:12;;;;;;;12.48;6.45;;;10.90;99.90;;;12.97;61.33;101884.25;5165115;28;20046;-74
2022/03/16 07:34:46;;;;;;;14.40;8.10;;;11.50;99.90;;;14.21;56.87;101891.84;5162957;28;20137;-73
2022/03/16 07:37:19;;;;;;;10.88;6.05;;;12.50;99.00;;;14.93;53.74;101887.50;5164051;28;20062;-72
2022/03/16 07:39:51;;;;;;;12.65;6.10;;;13.20;96.20;;;15.48;51.57;101896.31;5145855;28;20411;-73
2022/03/16 07:42:23;;;;;;;7.57;4.22;;;13.70;93.80;;;15.88;49.36;101906.38;5155599;28;20050;-71
2022/03/16 07:44:57;;;;;;;11.77;5.82;;;14.10;90.50;;;16.50;49.12;101901.19;5165276;28;20056;-70
2022/03/16 07:47:29;;;;;;;10.38;5.18;;;14.70;90.90;;;17.47;45.81;101905.50;5164846;28;20054;-71
2022/03/16 07:50:01;;;;;;;10.95;5.32;;;15.30;85.20;;;17.60;44.63;101910.25;5165276;28;20072;-70
2022/03/16 07:52:33;;;;;;;9.80;5.18;;;15.70;80.50;;;17.68;44.07;101905.16;5164398;28;20061;-71
2022/03/16 07:55:07;;;;;;;12.10;6.18;;;15.80;78.00;;;17.77;43.54;101896.56;5165486;28;20050;-74
2022/03/16 07:57:39;;;;;;;;;;;16.00;77.00;;;17.66;43.89;101898.91;5164754;28;20128;-73
2022/03/16 08:00:15;;;;;;;9.95;5.70;;;15.90;75.90;;;17.83;43.27;101902.00;5164419;28;20010;-73
2022/03/16 08:02:47;;;;;;;9.95;5.75;;;16.10;75.00;;;17.53;42.34;101913.56;5164006;28;20046;-75
2022/03/16 08:05:21;;;;;;;11.50;5.70;;;16.00;72.10;;;17.11;44.48;101907.25;5145428;28;20623;-71
2022/03/16 08:07:53;;;;;;;10.18;4.82;;;15.70;75.00;;;16.60;44.91;101908.47;5165134;28;20055;-72
2022/03/16 08:10:25;;;;;;;11.23;5.85;;;15.60;74.80;;;16.37;45.61;101910.47;5151432;28;20043;-73
2022/03/16 08:12:57;;;;;;;10.98;6.10;;;15.40;75.00;;;16.31;45.68;101905.03;5159147;28;20073;-73
2022/03/16 08:15:31;;;;;;;15.05;7.50;;;15.20;75.20;;;15.34;47.54;101905.50;5157291;28;20403;-74
2022/03/16 08:18:03;;;;;;;11.73;6.28;;;14.70;76.70;;;15.93;47.31;101910.03;5150883;28;20050;-74
2022/03/16 08:20:35;;;;;;;11.27;6.57;;;14.70;78.70;;;16.41;45.83;101901.81;5163909;28;20074;-73
2022/03/16 08:23:07;;;;;;;11.13;6.10;;;14.90;78.10;;;16.14;46.30;101901.91;5162721;28;20043;-72
2022/03/16 08:25:39;;;;;;;11.77;5.70;;;14.70;78.20;;;15.70;47.53;101898.81;5156183;28;20050;-72
2022/03/16 08:28:11;;;;;;;12.50;6.20;;;14.50;79.50;;;15.23;48.68;101884.09;5147779;28;20062;-73
2022/03/16 08:30:44;;;;;;;13.32;6.57;;;14.20;80.60;;;14.72;50.35;101894.59;5166333;28;20042;-73
2022/03/16 08:33:18;;;;;;;12.55;6.13;;;13.80;83.30;;;14.22;51.52;101885.78;5165670;28;20058;-73
2022/03/16 08:35:50;;;;;;;11.02;5.60;;;13.50;84.80;;;14.40;52.20;101870.69;5164988;28;20046;-69
2022/03/16 08:38:22;;;;;;;17.48;7.88;;;13.50;87.70;;;13.51;54.23;101876.03;5164602;28;20050;-71
2022/03/16 08:40:54;;;;;;;13.48;6.57;;;13.00;88.90;;;13.67;54.18;101875.81;5164358;28;20050;-72
2022/03/16 08:43:26;;;;;;;12.25;5.88;;;13.00;90.20;;;13.05;56.17;101884.59;5165201;28;20050;-71
2022/03/16 08:45:59;;;;;;;13.30;6.13;;;12.70;91.20;;;13.08;56.55;101892.56;5164372;28;20479;-72
2022/03/16 08:48:31;;;;;;;22.23;10.60;;;12.60;92.10;;;13.20;56.48;101885.25;5163928;28;20488;-73
2022/03/16 08:51:03;;;;;;;12.15;5.80;;;12.60;93.00;;;13.00;57.00;101876.53;5164965;28;20056;-76
2022/03/16 08:53:37;;;;;;;15.00;7.07;;;12.50;93.40;;;12.56;58.34;101866.78;5166107;28;20062;-71
2022/03/16 08:56:09;;;;;;;11.63;5.80;;;12.20;94.30;;;12.76;58.39;101876.38;5164224;28;20046;-71
2022/03/16 08:58:41;;;;;;;12.85;5.80;;;12.20;95.10;;;12.81;58.22;101863.50;5164893;28;20483;-72
2022/03/16 09:01:15;;;;;;;11.75;6.57;;;12.20;95.30;;;12.45;59.92;101857.56;5164924;28;20053;-71
2022/03/16 09:03:46;;;;;;;13.52;6.28;;;12.10;96.00;;;12.49;60.65;101859.50;5165123;28;20073;-72
2022/03/16 09:06:18;;;;;;;12.43;5.78;;;12.10;96.70;;;13.09;59.21;101864.66;5167369;28;20048;-73
2022/03/16 09:08:50;;;;;;;11.98;5.70;;;12.40;96.50;;;13.42;57.68;101880.88;5168895;28;20054;-72
2022/03/16 09:11:22;;;;;;;11.55;5.82;;;12.70;95.60;;;13.68;56.75;101874.97;5169336;28;20498;-75
2022/03/16 09:13:55;;;;;;;10.90;5.22;;;13.00;94.70;;;13.99;56.19;101871.81;5169692;28;20046;-72
2022/03/16 09:16:28;;;;;;;13.10;7.43;;;13.30;94.30;;;13.87;55.15;101871.31;5169734;28;20468;-71
2022/03/16 09:19:00;;;;;;;14.18;7.00;;;13.40;92.50;;;13.90;55.39;101868.84;5169708;28;20682;-71
2022/03/16 09:21:33;;;;;;;13.27;7.75;;;13.60;92.40;;;13.80;56.29;101869.31;5168839;28;20050;-72
2022/03/16 09:24:05;;;;;;;12.02;5.40;;;13.50;92.70;;;13.71;56.08;101859.38;5169427;28;20050;-72
2022/03/16 09:26:38;;;;;;;10.30;5.15;;;13.60;92.00;;;13.66;56.45;101863.53;5168569;28;20046;-72
2022/03/16 09:29:10;;;;;;;10.73;5.43;;;13.50;92.40;;;13.84;56.34;101863.38;5167104;28;20046;-72
2022/03/16 09:31:44;;;;;;;11.43;5.75;;;13.60;92.50;;;13.94;55.52;101875.06;5168246;28;20053;-71
2022/03/16 09:34:16;;;;;;;9.27;4.53;;;13.60;91.90;;;13.57;56.21;101860.56;5168529;28;20050;-71
2022/03/16 09:36:48;;;;;;;16.63;7.45;;;13.50;91.70;;;13.43;56.63;101875.75;5167614;28;20046;-72
2022/03/16 09:39:20;;;;;;;12.32;5.97;;;13.30;92.40;;;13.37;56.71;101869.38;5167716;28;20043;-71
2022/03/16 09:41:52;;;;;;;11.00;5.15;;;13.30;92.30;;;13.17;57.06;101884.19;5167855;28;20057;-75
2022/03/16 09:44:25;;;;;;;13.27;6.35;;;13.20;92.20;;;12.96;57.80;101892.03;5169074;28;20096;-72
2022/03/16 09:46:59;;;;;;;14.68;6.32;;;13.00;92.60;;;12.89;58.20;101871.69;5168118;28;20046;-72
2022/03/16 09:49:31;;;;;;;11.85;6.03;;;12.90;92.90;;;12.86;58.69;101862.00;5157530;28;20064;-71
2022/03/16 09:52:04;;;;;;;10.43;5.25;;;12.80;93.50;;;12.98;58.52;101862.50;5159486;28;20046;-72
2022/03/16 09:54:37;;;;;;;12.50;5.72;;;12.90;93.70;;;12.86;58.52;101866.34;5160716;28;20435;-71
2022/03/16 09:57:08;;;;;;;12.40;5.50;;;12.80;93.70;;;12.80;58.82;101866.97;5164907;28;20124;-71
2022/03/16 09:59:43;;;;;;;17.35;7.32;;;12.80;93.80;;;12.90;59.12;101849.91;5167797;28;20514;-72
2022/03/16 10:02:21;;;;;;;9.55;5.15;;;12.80;94.30;;;12.95;58.62;101853.63;5167551;28;20496;-71
2022/03/16 10:04:55;;;;;;;14.32;6.40;;;12.80;94.10;;;13.20;58.81;101856.47;5166945;28;20050;-72
2022/03/16 10:07:30;;;;;;;12.57;6.63;;;12.90;94.70;;;13.33;57.79;101867.44;5167526;28;20387;-71
2022/03/16 10:15:42;;;;;;;12.95;5.82;;;13.20;94.50;;;13.57;57.02;101863.19;5166793;28;20062;-73
2022/03/16 10:18:19;;;;;;;11.80;5.45;;;13.40;92.90;;;13.66;56.78;101871.41;5166910;28;20132;-73
2022/03/16 10:20:52;;;;;;;11.90;6.28;;;13.50;92.50;;;13.37;57.71;101862.41;5166088;28;20144;-73
2022/03/16 10:23:27;;;;;;;8.90;4.93;;;13.40;92.80;;;13.56;56.68;101875.41;5167200;28;20105;-69
2022/03/16 10:26:03;;;;;;;12.93;6.28;;;13.40;92.40;;;13.55;57.14;101856.97;5165996;28;20085;-72
2022/03/16 10:28:35;;;;;;;12.65;6.30;;;13.40;92.60;;;13.39;57.24;101847.63;5166422;28;20567;-72
2022/03/16 10:31:11;;;;;;;13.15;5.93;;;13.40;92.50;;;13.70;57.10;101861.94;5166523;28;20051;-69
2022/03/16 10:33:50;;;;;;;14.95;7.38;;;13.40;92.90;;;13.52;56.68;101846.38;5166444;28;20054;-70
2022/03/16 10:36:23;;;;;;;11.00;4.72;;;13.40;92.30;;;13.52;57.11;101857.75;5166234;28;20104;-70
2022/03/16 10:38:58;;;;;;;13.35;5.68;;;13.40;92.40;;;13.32;57.06;101842.09;5166287;28;20073;-70
2022/03/16 10:47:17;;;;;;;11.35;5.63;;;13.40;92.70;;;13.53;57.66;101829.84;5165696;28;20050;-73
2022/03/16 10:50:06;;;;;;;9.20;5.20;;;13.40;93.10;;;13.62;56.44;101852.88;5165822;28;20054;-73
2022/03/16 10:52:41;;;;;;;9.35;4.68;;;13.50;91.80;;;13.55;56.75;101834.28;5160067;28;20050;-72